createdAt,value
2023-03-05T00:01:08.006Z,6.99
2023-03-05T00:03:35.119Z,7.00
2023-03-05T00:06:02.493Z,6.91
2023-03-05T00:08:30.216Z,6.95
2023-03-05T00:11:02.708Z,6.97
2023-03-05T00:13:30.396Z,7.04
2023-03-05T00:15:57.448Z,7.05
2023-03-05T00:18:24.956Z,7.04
2023-03-05T00:20:51.784Z,6.92
2023-03-05T00:23:18.803Z,6.69
2023-03-05T00:25:46.732Z,6.71
2023-03-05T00:28:14.031Z,6.64
2023-03-05T00:30:41.313Z,6.56
2023-03-05T00:33:09.177Z,6.54
2023-03-05T00:35:44.848Z,6.47
2023-03-05T00:38:12.824Z,6.43
2023-03-05T00:40:41.425Z,6.56
2023-03-05T00:43:09.308Z,6.63
2023-03-05T00:45:36.774Z,6.57
2023-03-05T00:48:04.857Z,6.56
2023-03-05T00:50:31.697Z,6.61
2023-03-05T00:52:59.295Z,6.70
2023-03-05T00:55:26.306Z,6.73
2023-03-05T00:57:53.190Z,6.68
2023-03-05T01:00:20.356Z,6.68
2023-03-05T01:02:47.195Z,6.65
2023-03-05T01:05:15.516Z,6.65
2023-03-05T01:07:42.461Z,6.53
2023-03-05T01:10:11.902Z,6.53
2023-03-05T01:12:39.238Z,6.55
2023-03-05T01:15:06.759Z,6.58
2023-03-05T01:17:34.593Z,6.58
2023-03-05T01:20:01.591Z,6.63
2023-03-05T01:22:28.992Z,6.61
2023-03-05T01:24:56.003Z,6.52
2023-03-05T01:27:23.273Z,6.25
2023-03-05T01:29:50.073Z,6.08
2023-03-05T01:32:16.983Z,6.15
2023-03-05T01:34:44.053Z,6.11
2023-03-05T01:37:10.897Z,6.10
2023-03-05T01:39:37.851Z,6.15
2023-03-05T01:42:06.378Z,6.23
2023-03-05T01:44:34.083Z,6.39
2023-03-05T01:47:01.254Z,6.31
2023-03-05T01:49:33.289Z,6.17
2023-03-05T01:52:18.048Z,6.16
2023-03-05T01:54:47.116Z,6.16
2023-03-05T01:57:30.977Z,6.15
2023-03-05T02:00:02.841Z,6.11
2023-03-05T02:02:41.218Z,6.07
2023-03-05T02:05:12.940Z,5.97
2023-03-05T02:07:42.842Z,5.83
2023-03-05T02:10:25.794Z,5.88
2023-03-05T02:12:54.740Z,5.97
2023-03-05T02:15:22.481Z,6.10
2023-03-05T02:17:49.461Z,6.16
2023-03-05T02:20:20.300Z,6.10
2023-03-05T02:22:47.478Z,5.89
2023-03-05T02:25:21.145Z,5.85
2023-03-05T02:27:58.228Z,5.79
2023-03-05T02:30:25.540Z,5.84
2023-03-05T02:32:52.416Z,5.85
2023-03-05T02:35:21.362Z,5.79
2023-03-05T02:37:48.345Z,5.80
2023-03-05T02:40:15.849Z,5.82
2023-03-05T02:42:43.684Z,5.76
2023-03-05T02:45:13.756Z,5.65
2023-03-05T02:47:41.174Z,5.63
2023-03-05T02:50:11.250Z,5.73
2023-03-05T02:52:39.063Z,5.70
2023-03-05T02:55:10.317Z,5.77
2023-03-05T02:57:38.665Z,5.45
2023-03-05T03:00:06.600Z,5.32
2023-03-05T03:02:33.842Z,5.20
2023-03-05T03:05:00.654Z,4.97
2023-03-05T03:07:27.462Z,4.95
2023-03-05T03:09:54.297Z,4.98
2023-03-05T03:12:21.176Z,5.11
2023-03-05T03:14:48.174Z,5.15
2023-03-05T03:17:17.090Z,5.11
2023-03-05T03:19:45.233Z,5.11
2023-03-05T03:22:14.562Z,5.26
2023-03-05T03:24:43.113Z,5.26
2023-03-05T03:27:10.683Z,5.26
2023-03-05T03:29:37.556Z,5.30
2023-03-05T03:32:04.836Z,5.34
2023-03-05T03:34:31.918Z,5.32
2023-03-05T03:36:58.757Z,5.29
2023-03-05T03:39:25.691Z,5.38
2023-03-05T03:41:53.603Z,5.12
2023-03-05T03:44:21.778Z,4.91
2023-03-05T03:46:50.555Z,5.07
2023-03-05T03:49:20.564Z,5.13
2023-03-05T03:51:49.038Z,5.16
2023-03-05T03:54:17.028Z,4.96
2023-03-05T03:56:44.027Z,4.89
2023-03-05T03:59:11.145Z,4.80
2023-03-05T04:01:38.307Z,4.90
2023-03-05T04:04:05.946Z,4.94
2023-03-05T04:06:33.398Z,4.89
2023-03-05T04:09:00.561Z,4.99
2023-03-05T04:11:27.425Z,5.00
2023-03-05T04:13:54.247Z,5.00
2023-03-05T04:16:21.510Z,5.07
2023-03-05T04:18:48.339Z,4.98
2023-03-05T04:21:15.314Z,4.94
2023-03-05T04:23:42.269Z,4.93
2023-03-05T04:26:09.308Z,4.38
2023-03-05T04:28:36.161Z,4.19
2023-03-05T04:31:05.092Z,4.23
2023-03-05T04:33:32.236Z,4.38
2023-03-05T04:35:59.648Z,4.39
2023-03-05T04:38:26.496Z,4.41
2023-03-05T04:40:53.368Z,4.45
2023-03-05T04:43:20.277Z,4.38
2023-03-05T04:45:47.217Z,4.47
2023-03-05T04:48:14.173Z,4.43
2023-03-05T04:50:41.128Z,4.54
2023-03-05T04:53:08.001Z,4.85
2023-03-05T04:55:34.901Z,4.89
2023-03-05T04:58:01.757Z,4.81
2023-03-05T05:00:28.657Z,4.85
2023-03-05T05:02:55.671Z,4.82
2023-03-05T05:05:26.137Z,5.00
2023-03-05T05:07:57.545Z,5.02
2023-03-05T05:10:25.756Z,4.81
2023-03-05T05:12:52.694Z,5.07
2023-03-05T05:15:20.516Z,4.92
2023-03-05T05:17:47.856Z,4.99
2023-03-05T05:20:15.896Z,5.06
2023-03-05T05:22:43.122Z,5.10
2023-03-05T05:25:10.693Z,5.05
2023-03-05T05:27:41.302Z,5.14
2023-03-05T05:30:09.442Z,5.15
2023-03-05T05:32:36.336Z,5.29
2023-03-05T05:35:04.007Z,5.40
2023-03-05T05:37:30.955Z,5.46
2023-03-05T05:39:57.827Z,5.74
2023-03-05T05:42:25.490Z,5.50
2023-03-05T05:44:52.992Z,5.35
2023-03-05T05:47:19.872Z,5.28
2023-03-05T05:49:46.842Z,5.04
2023-03-05T05:52:15.252Z,5.02
2023-03-05T05:54:42.231Z,4.99
2023-03-05T05:57:09.307Z,5.01
2023-03-05T05:59:37.549Z,4.94
2023-03-05T06:02:05.485Z,4.96
2023-03-05T06:04:32.284Z,4.95
2023-03-05T06:07:00.026Z,4.92
2023-03-05T06:09:27.475Z,4.82
2023-03-05T06:11:54.453Z,4.93
2023-03-05T06:14:21.586Z,4.91
2023-03-05T06:16:48.624Z,4.91
2023-03-05T06:19:16.212Z,4.97
2023-03-05T06:21:43.671Z,5.01
2023-03-05T06:24:11.152Z,4.82
2023-03-05T06:26:38.019Z,4.94
2023-03-05T06:29:04.846Z,4.85
2023-03-05T06:31:31.903Z,5.02
2023-03-05T06:34:03.725Z,5.15
2023-03-05T06:36:31.185Z,5.28
2023-03-05T06:38:59.315Z,5.73
2023-03-05T06:41:31.009Z,6.02
2023-03-05T06:44:00.454Z,6.67
2023-03-05T06:46:31.842Z,7.03
2023-03-05T06:49:01.281Z,7.42
2023-03-05T06:51:39.907Z,7.78
2023-03-05T06:54:12.970Z,7.97
2023-03-05T06:56:41.778Z,8.17
2023-03-05T06:59:09.233Z,8.05
2023-03-05T07:01:36.366Z,8.40
2023-03-05T07:04:04.458Z,8.22
2023-03-05T07:06:36.245Z,8.16
2023-03-05T07:09:05.636Z,8.75
2023-03-05T07:11:33.108Z,8.95
2023-03-05T07:14:00.327Z,9.05
2023-03-05T07:16:30.635Z,8.85
2023-03-05T07:18:59.052Z,9.18
2023-03-05T07:21:28.437Z,9.10
2023-03-05T07:23:57.219Z,9.19
2023-03-05T07:26:24.633Z,9.39
2023-03-05T07:28:53.990Z,9.29
2023-03-05T07:31:23.381Z,9.35
2023-03-05T07:33:50.938Z,9.46
2023-03-05T07:36:17.965Z,9.38
2023-03-05T07:38:45.334Z,9.78
2023-03-05T07:41:19.661Z,9.94
2023-03-05T07:43:48.373Z,10.11
2023-03-05T07:46:18.300Z,10.34
2023-03-05T07:48:45.376Z,10.39
2023-03-05T07:51:17.886Z,10.11
2023-03-05T07:53:46.970Z,10.40
2023-03-05T07:56:14.339Z,10.60
2023-03-05T07:58:41.210Z,11.05
2023-03-05T08:01:14.240Z,11.46
2023-03-05T08:03:42.997Z,11.70
2023-03-05T08:06:11.868Z,11.78
2023-03-05T08:08:39.669Z,11.80
2023-03-05T08:11:08.967Z,12.13
2023-03-05T08:13:36.341Z,12.26
2023-03-05T08:16:12.659Z,12.56
2023-03-05T08:18:39.556Z,12.70
2023-03-05T08:21:07.086Z,13.01
2023-03-05T08:23:34.638Z,13.18
2023-03-05T08:26:01.659Z,13.42
2023-03-05T08:28:28.796Z,13.23
2023-03-05T08:30:55.660Z,13.48
2023-03-05T08:33:22.556Z,13.40
2023-03-05T08:35:49.667Z,13.42
2023-03-05T08:38:16.627Z,13.40
2023-03-05T08:40:43.613Z,13.57
2023-03-05T08:43:10.535Z,13.39
2023-03-05T08:45:39.347Z,13.42
2023-03-05T08:48:06.506Z,13.25
2023-03-05T08:50:33.405Z,13.68
2023-03-05T08:53:00.301Z,13.86
2023-03-05T08:55:27.175Z,13.74
2023-03-05T08:57:54.046Z,13.62
2023-03-05T09:00:21.163Z,13.82
2023-03-05T09:02:48.021Z,13.82
2023-03-05T09:05:15.087Z,14.21
2023-03-05T09:07:42.001Z,14.08
2023-03-05T09:10:11.597Z,14.36
2023-03-05T09:12:38.439Z,14.40
2023-03-05T09:15:09.822Z,14.45
2023-03-05T09:17:38.099Z,14.63
2023-03-05T09:20:06.679Z,14.74
2023-03-05T09:22:33.574Z,14.88
2023-03-05T09:25:00.424Z,14.58
2023-03-05T09:27:27.283Z,14.36
2023-03-05T09:29:54.283Z,14.07
2023-03-05T09:32:21.412Z,14.00
2023-03-05T09:34:48.434Z,14.33
2023-03-05T09:37:15.221Z,14.80
2023-03-05T09:39:42.059Z,14.77
2023-03-05T09:42:30.376Z,14.50
2023-03-05T09:45:08.885Z,13.96
2023-03-05T09:47:38.800Z,13.71
2023-03-05T09:50:33.173Z,13.76
2023-03-05T09:53:30.864Z,14.02
2023-03-05T09:56:01.580Z,14.14
2023-03-05T09:58:31.421Z,14.12
2023-03-05T10:01:03.484Z,14.18
2023-03-05T10:03:57.148Z,14.15
2023-03-05T10:06:29.294Z,13.81
2023-03-05T10:09:47.563Z,13.89
2023-03-05T10:12:35.894Z,13.80
2023-03-05T10:15:03.334Z,13.88
2023-03-05T10:17:57.360Z,14.10
2023-03-05T10:20:39.413Z,14.06
2023-03-05T10:23:09.356Z,14.57
2023-03-05T10:26:04.149Z,15.16
2023-03-05T10:29:03.884Z,15.52
2023-03-05T10:31:41.197Z,15.76
2023-03-05T10:34:33.834Z,15.81
2023-03-05T10:37:06.431Z,16.41
2023-03-05T10:40:02.745Z,16.40
2023-03-05T10:43:08.697Z,16.56
2023-03-05T10:45:41.447Z,16.64
2023-03-05T10:48:33.252Z,16.87
2023-03-05T10:51:26.233Z,17.57
2023-03-05T10:53:53.070Z,17.29
2023-03-05T10:56:22.851Z,16.89
2023-03-05T10:58:49.776Z,16.33
2023-03-05T11:01:16.851Z,15.91
2023-03-05T11:03:46.481Z,15.56
2023-03-05T11:06:13.847Z,15.35
2023-03-05T11:08:41.401Z,15.33
2023-03-05T11:11:19.845Z,15.12
2023-03-05T11:14:03.899Z,14.53
2023-03-05T11:16:45.734Z,13.96
2023-03-05T11:19:15.569Z,13.84
2023-03-05T11:21:44.075Z,13.83
2023-03-05T11:24:15.097Z,13.67
2023-03-05T11:26:51.556Z,13.49
2023-03-05T11:29:27.079Z,13.69
2023-03-05T11:31:54.505Z,13.61
2023-03-05T11:34:35.523Z,13.58
2023-03-05T11:37:06.372Z,13.27
2023-03-05T11:39:37.357Z,13.21
2023-03-05T11:42:06.751Z,13.09
2023-03-05T11:44:35.164Z,13.11
2023-03-05T11:47:23.160Z,13.20
2023-03-05T11:49:56.088Z,13.16
2023-03-05T11:52:34.158Z,13.17
2023-03-05T11:55:03.878Z,13.10
2023-03-05T11:57:44.314Z,12.98
2023-03-05T12:00:17.886Z,12.95
2023-03-05T12:02:49.842Z,13.07
2023-03-05T12:05:17.438Z,13.17
2023-03-05T12:07:50.181Z,13.32
2023-03-05T12:10:20.744Z,13.20
2023-03-05T12:12:53.365Z,13.24
2023-03-05T12:15:31.339Z,13.19
2023-03-05T12:18:27.408Z,13.46
2023-03-05T12:21:00.424Z,13.52
2023-03-05T12:23:28.147Z,13.44
2023-03-05T12:25:57.904Z,13.55
2023-03-05T12:28:37.159Z,13.60
2023-03-05T12:31:08.335Z,13.58
2023-03-05T12:33:39.451Z,13.75
2023-03-05T12:36:21.381Z,13.71
2023-03-05T12:38:57.890Z,13.68
2023-03-05T12:41:26.352Z,13.74
2023-03-05T12:44:06.854Z,13.69
2023-03-05T12:46:38.117Z,13.73
2023-03-05T12:49:28.426Z,13.55
2023-03-05T12:51:59.121Z,13.39
2023-03-05T12:54:42.231Z,13.52
2023-03-05T12:57:22.950Z,13.42
2023-03-05T13:00:05.411Z,13.70
2023-03-05T13:02:37.223Z,13.50
2023-03-05T13:05:33.606Z,13.27
2023-03-05T13:08:22.958Z,13.25
2023-03-05T13:10:56.418Z,13.23
2023-03-05T13:13:26.149Z,13.24
2023-03-05T13:15:53.718Z,13.32
2023-03-05T13:18:21.808Z,13.35
2023-03-05T13:20:52.264Z,13.30
2023-03-05T13:23:27.389Z,13.26
2023-03-05T13:26:19.999Z,13.37
2023-03-05T13:29:31.794Z,13.53
2023-03-05T13:32:17.833Z,13.28
2023-03-05T13:34:48.162Z,13.13
2023-03-05T13:37:21.258Z,13.20
2023-03-05T13:39:52.289Z,13.23
2023-03-05T13:42:26.075Z,13.17
2023-03-05T13:44:58.551Z,13.23
2023-03-05T13:47:28.763Z,13.31
2023-03-05T13:50:00.560Z,13.39
2023-03-05T13:52:36.041Z,13.49
2023-03-05T13:55:05.393Z,13.72
2023-03-05T13:57:36.983Z,13.74
2023-03-05T14:00:28.325Z,13.99
2023-03-05T14:02:59.745Z,14.44
2023-03-05T14:05:28.048Z,14.47
2023-03-05T14:07:56.772Z,14.70
2023-03-05T14:10:39.359Z,14.91
2023-03-05T14:13:13.858Z,15.04
2023-03-05T14:15:40.972Z,15.13
2023-03-05T14:18:11.849Z,15.27
2023-03-05T14:20:59.918Z,15.17
2023-03-05T14:23:32.672Z,15.24
2023-03-05T14:26:29.485Z,15.06
2023-03-05T14:29:11.782Z,14.94
2023-03-05T14:32:00.469Z,14.84
2023-03-05T14:34:31.144Z,14.58
2023-03-05T14:37:22.280Z,14.49
2023-03-05T14:39:58.017Z,14.25
2023-03-05T14:42:50.890Z,14.20
2023-03-05T14:45:21.081Z,14.39
2023-03-05T14:47:48.025Z,14.37
2023-03-05T14:50:21.297Z,14.26
2023-03-05T14:52:51.343Z,14.20
2023-03-05T14:55:21.517Z,13.83
2023-03-05T14:57:51.539Z,13.85
2023-03-05T15:00:26.952Z,13.95
2023-03-05T15:02:54.361Z,13.94
2023-03-05T15:05:21.247Z,13.64
2023-03-05T15:07:49.086Z,13.55
2023-03-05T15:10:18.377Z,13.62
2023-03-05T15:12:45.770Z,13.34
2023-03-05T15:15:16.552Z,13.04
2023-03-05T15:17:47.592Z,12.88
2023-03-05T15:20:18.300Z,12.99
2023-03-05T15:22:45.378Z,13.10
2023-03-05T15:25:13.038Z,13.10
2023-03-05T15:27:40.042Z,12.98
2023-03-05T15:30:08.905Z,12.90
2023-03-05T15:32:35.787Z,12.93
2023-03-05T15:35:03.027Z,12.74
2023-03-05T15:37:29.881Z,12.80
2023-03-05T15:39:56.742Z,12.85
2023-03-05T15:42:23.629Z,12.68
2023-03-05T15:44:50.427Z,12.68
2023-03-05T15:47:17.268Z,12.62
2023-03-05T15:49:44.077Z,12.49
2023-03-05T15:52:11.019Z,12.33
2023-03-05T15:54:37.908Z,12.22
2023-03-05T15:57:09.679Z,12.26
2023-03-05T15:59:37.257Z,12.12
2023-03-05T16:02:04.276Z,11.93
2023-03-05T16:04:31.392Z,11.86
2023-03-05T16:07:02.942Z,11.75
2023-03-05T16:09:35.790Z,11.75
2023-03-05T16:12:07.330Z,11.65
2023-03-05T16:14:34.417Z,11.57
2023-03-05T16:17:03.854Z,11.50
2023-03-05T16:19:31.397Z,11.47
2023-03-05T16:21:58.332Z,11.54
2023-03-05T16:24:25.183Z,11.49
2023-03-05T16:26:52.225Z,11.40
2023-03-05T16:29:19.094Z,11.30
2023-03-05T16:31:46.919Z,11.35
2023-03-05T16:34:16.217Z,11.31
2023-03-05T16:36:52.726Z,11.12
2023-03-05T16:39:21.140Z,11.12
2023-03-05T16:41:48.397Z,11.04
2023-03-05T16:44:15.300Z,10.99
2023-03-05T16:46:44.006Z,10.82
2023-03-05T16:49:11.308Z,10.77
2023-03-05T16:51:38.236Z,10.66
2023-03-05T16:54:05.192Z,10.55
2023-03-05T16:56:32.045Z,10.65
2023-03-05T16:58:59.253Z,10.73
2023-03-05T17:01:26.334Z,10.82
2023-03-05T17:03:53.692Z,10.73
2023-03-05T17:06:23.882Z,10.96
2023-03-05T17:08:51.858Z,10.96
2023-03-05T17:11:19.415Z,10.81
2023-03-05T17:13:48.825Z,10.73
2023-03-05T17:16:19.604Z,10.72
2023-03-05T17:18:46.720Z,10.31
2023-03-05T17:21:14.430Z,10.39
2023-03-05T17:23:41.785Z,10.33
2023-03-05T17:26:11.999Z,10.18
2023-03-05T17:28:39.050Z,10.26
2023-03-05T17:31:06.140Z,10.32
2023-03-05T17:33:34.439Z,10.61
2023-03-05T17:36:01.828Z,10.52
2023-03-05T17:38:28.977Z,10.65
2023-03-05T17:40:56.285Z,10.62
2023-03-05T17:43:23.492Z,10.75
2023-03-05T17:45:50.391Z,10.43
2023-03-05T17:48:17.398Z,10.50
2023-03-05T17:50:45.213Z,10.34
2023-03-05T17:53:12.587Z,10.37
2023-03-05T17:55:40.054Z,10.41
2023-03-05T17:58:07.040Z,10.40
2023-03-05T18:00:34.303Z,10.37
2023-03-05T18:03:01.663Z,10.34
2023-03-05T18:05:29.534Z,10.11
2023-03-05T18:07:56.544Z,10.17
2023-03-05T18:10:26.219Z,9.98
2023-03-05T18:12:53.765Z,9.93
2023-03-05T18:15:22.741Z,9.77
2023-03-05T18:17:50.095Z,9.83
2023-03-05T18:20:36.750Z,9.98
2023-03-05T18:23:05.447Z,9.82
2023-03-05T18:25:32.525Z,9.50
2023-03-05T18:28:05.598Z,9.49
2023-03-05T18:30:32.865Z,9.36
2023-03-05T18:33:00.105Z,9.26
2023-03-05T18:35:29.128Z,9.39
2023-03-05T18:37:56.172Z,9.37
2023-03-05T18:40:25.127Z,9.31
2023-03-05T18:42:52.014Z,9.32
2023-03-05T18:45:20.597Z,9.28
2023-03-05T18:47:48.142Z,9.27
2023-03-05T18:50:18.692Z,9.25
2023-03-05T18:52:45.691Z,9.30
2023-03-05T18:55:24.546Z,9.29
2023-03-05T18:57:51.955Z,9.45
2023-03-05T19:00:23.454Z,9.62
2023-03-05T19:02:50.673Z,9.48
2023-03-05T19:05:18.367Z,9.33
2023-03-05T19:07:45.849Z,9.40
2023-03-05T19:10:14.272Z,9.25
2023-03-05T19:13:08.131Z,9.22
2023-03-05T19:15:35.242Z,9.30
2023-03-05T19:18:02.154Z,9.50
2023-03-05T19:20:29.023Z,9.42
2023-03-05T19:22:55.919Z,9.37
2023-03-05T19:25:23.125Z,9.23
2023-03-05T19:27:49.989Z,9.13
2023-03-05T19:30:17.618Z,9.02
2023-03-05T19:32:47.232Z,8.86
2023-03-05T19:35:18.283Z,8.89
2023-03-05T19:37:46.033Z,8.96
2023-03-05T19:40:14.753Z,8.92
2023-03-05T19:42:41.654Z,8.81
2023-03-05T19:45:09.294Z,8.85
2023-03-05T19:47:36.131Z,8.95
2023-03-05T19:50:05.441Z,9.15
2023-03-05T19:52:32.304Z,8.94
2023-03-05T19:55:00.192Z,8.83
2023-03-05T19:57:27.261Z,8.94
2023-03-05T19:59:54.237Z,9.01
2023-03-05T20:02:22.046Z,9.29
2023-03-05T20:04:49.608Z,9.32
2023-03-05T20:07:17.245Z,9.40
2023-03-05T20:09:44.191Z,9.42
2023-03-05T20:12:11.314Z,9.40
2023-03-05T20:14:38.315Z,9.36
2023-03-05T20:17:05.225Z,9.08
2023-03-05T20:19:32.151Z,9.08
2023-03-05T20:21:59.095Z,9.34
2023-03-05T20:24:27.248Z,9.36
2023-03-05T20:26:54.145Z,9.42
2023-03-05T20:29:21.256Z,9.45
2023-03-05T20:31:50.044Z,9.38
2023-03-05T20:34:19.113Z,9.22
2023-03-05T20:36:46.709Z,9.15
2023-03-05T20:39:13.887Z,9.08
2023-03-05T20:41:41.251Z,9.01
2023-03-05T20:44:08.775Z,9.03
2023-03-05T20:46:49.707Z,8.95
2023-03-05T20:49:20.653Z,8.95
2023-03-05T20:51:50.203Z,8.99
2023-03-05T20:54:17.342Z,9.08
2023-03-05T20:56:44.271Z,9.01
2023-03-05T20:59:11.325Z,8.93
2023-03-05T21:01:40.134Z,8.94
2023-03-05T21:04:08.139Z,8.93
2023-03-05T21:06:35.645Z,9.02
2023-03-05T21:09:03.034Z,8.91
2023-03-05T21:11:30.015Z,8.83
2023-03-05T21:13:56.966Z,8.92
2023-03-05T21:16:26.830Z,8.81
2023-03-05T21:18:56.114Z,8.78
2023-03-05T21:21:23.569Z,8.76
2023-03-05T21:23:50.542Z,8.66
2023-03-05T21:26:17.533Z,8.73
2023-03-05T21:28:44.492Z,8.81
2023-03-05T21:31:16.948Z,8.81
2023-03-05T21:33:43.850Z,8.68
2023-03-05T21:36:10.909Z,8.83
2023-03-05T21:38:37.882Z,8.84
2023-03-05T21:41:05.599Z,8.64
2023-03-05T21:43:32.875Z,8.76
2023-03-05T21:46:01.239Z,8.69
2023-03-05T21:48:28.206Z,8.56
2023-03-05T21:50:55.513Z,8.55
2023-03-05T21:53:23.482Z,8.66
2023-03-05T21:56:24.577Z,8.73
2023-03-05T21:58:52.495Z,8.77
2023-03-05T22:01:21.210Z,8.46
2023-03-05T22:03:48.770Z,8.45
2023-03-05T22:06:17.221Z,8.46
2023-03-05T22:08:44.297Z,8.54
2023-03-05T22:11:13.200Z,8.68
2023-03-05T22:13:40.481Z,8.48
2023-03-05T22:16:09.307Z,8.39
2023-03-05T22:18:36.788Z,8.34
2023-03-05T22:21:04.324Z,8.48
2023-03-05T22:23:36.877Z,8.50
2023-03-05T22:26:07.695Z,8.50
2023-03-05T22:28:35.922Z,8.45
2023-03-05T22:31:02.891Z,8.42
2023-03-05T22:33:30.812Z,8.28
2023-03-05T22:35:58.696Z,8.28
2023-03-05T22:38:26.410Z,8.20
2023-03-05T22:40:53.377Z,8.37
2023-03-05T22:43:20.708Z,8.48
2023-03-05T22:45:47.874Z,8.53
2023-03-05T22:48:15.072Z,8.46
2023-03-05T22:50:44.054Z,8.75
2023-03-05T22:53:12.187Z,8.43
2023-03-05T22:55:40.924Z,8.30
2023-03-05T22:58:07.808Z,8.39
2023-03-05T23:00:34.797Z,8.18
2023-03-05T23:03:01.857Z,8.14
2023-03-05T23:05:28.859Z,8.05
2023-03-05T23:07:55.666Z,8.12
2023-03-05T23:10:26.915Z,8.15
2023-03-05T23:12:55.822Z,8.37
2023-03-05T23:15:41.664Z,8.35
2023-03-05T23:18:08.662Z,8.06
2023-03-05T23:20:36.926Z,8.21
2023-03-05T23:23:04.876Z,8.26
2023-03-05T23:25:33.999Z,8.02
2023-03-05T23:28:01.900Z,8.14
2023-03-05T23:30:34.650Z,8.06
2023-03-05T23:33:11.040Z,7.80
2023-03-05T23:35:41.110Z,7.84
2023-03-05T23:38:12.298Z,7.88
2023-03-05T23:40:44.921Z,8.11
2023-03-05T23:43:12.505Z,8.17
2023-03-05T23:45:41.779Z,8.19
2023-03-05T23:48:09.199Z,8.22
2023-03-05T23:50:39.904Z,7.99
2023-03-05T23:53:07.010Z,8.00
2023-03-05T23:55:42.357Z,8.11
2023-03-05T23:58:10.024Z,8.20
